sensor_id;sensor_type;location;lat;lon;timestamp;pressure;altitude;pressure_sealevel;temperature;humidity
22755;BME280;11544;42.020;23.094;2023-07-09T00:02:44;97536.94;;;20.19;87.33
22755;BME280;11544;42.020;23.094;2023-07-09T00:05:14;97535.53;;;20.00;90.82
22755;BME280;11544;42.020;23.094;2023-07-09T00:07:55;97532.47;;;19.94;91.76
22755;BME280;11544;42.020;23.094;2023-07-09T00:10:25;97533.34;;;20.20;90.13
22755;BME280;11544;42.020;23.094;2023-07-09T00:12:54;97532.28;;;19.57;92.05
22755;BME280;11544;42.020;23.094;2023-07-09T00:15:21;97529.38;;;20.51;88.40
22755;BME280;11544;42.020;23.094;2023-07-09T00:17:48;97531.75;;;20.04;88.73
22755;BME280;11544;42.020;23.094;2023-07-09T00:20:17;97531.84;;;20.03;88.87
22755;BME280;11544;42.020;23.094;2023-07-09T00:22:45;97530.47;;;20.23;89.12
22755;BME280;11544;42.020;23.094;2023-07-09T00:25:19;97529.72;;;20.59;85.41
22755;BME280;11544;42.020;23.094;2023-07-09T00:27:46;97535.75;;;20.48;86.15
22755;BME280;11544;42.020;23.094;2023-07-09T00:30:19;97536.59;;;20.36;86.63
22755;BME280;11544;42.020;23.094;2023-07-09T00:32:46;97530.47;;;19.84;89.12
22755;BME280;11544;42.020;23.094;2023-07-09T00:35:13;97533.66;;;19.90;89.09
22755;BME280;11544;42.020;23.094;2023-07-09T00:37:44;97540.53;;;19.92;89.66
22755;BME280;11544;42.020;23.094;2023-07-09T00:40:22;97537.88;;;20.43;86.77
22755;BME280;11544;42.020;23.094;2023-07-09T00:42:59;97535.34;;;20.03;89.32
22755;BME280;11544;42.020;23.094;2023-07-09T00:45:30;97545.94;;;19.23;94.81
22755;BME280;11544;42.020;23.094;2023-07-09T00:48:12;97539.31;;;19.43;95.33
22755;BME280;11544;42.020;23.094;2023-07-09T00:50:53;97547.00;;;18.79;99.63
22755;BME280;11544;42.020;23.094;2023-07-09T00:53:50;97539.97;;;19.20;96.90
22755;BME280;11544;42.020;23.094;2023-07-09T00:56:29;97531.22;;;19.19;98.05
22755;BME280;11544;42.020;23.094;2023-07-09T00:59:12;97533.47;;;19.25;97.11
22755;BME280;11544;42.020;23.094;2023-07-09T01:01:40;97538.03;;;18.82;99.92
22755;BME280;11544;42.020;23.094;2023-07-09T01:04:10;97536.91;;;19.40;97.93
22755;BME280;11544;42.020;23.094;2023-07-09T01:06:44;97530.19;;;18.95;99.69
22755;BME280;11544;42.020;23.094;2023-07-09T01:09:12;97531.44;;;19.16;99.39
22755;BME280;11544;42.020;23.094;2023-07-09T01:11:39;97531.63;;;18.57;100.00
22755;BME280;11544;42.020;23.094;2023-07-09T01:14:08;97535.09;;;18.72;100.00
22755;BME280;11544;42.020;23.094;2023-07-09T01:16:41;97525.19;;;18.76;100.00
22755;BME280;11544;42.020;23.094;2023-07-09T01:19:09;97532.84;;;18.37;100.00
22755;BME280;11544;42.020;23.094;2023-07-09T01:21:43;97529.28;;;18.38;100.00
22755;BME280;11544;42.020;23.094;2023-07-09T01:24:15;97527.47;;;18.53;100.00
22755;BME280;11544;42.020;23.094;2023-07-09T01:26:59;97535.31;;;18.55;100.00
22755;BME280;11544;42.020;23.094;2023-07-09T01:29:32;97530.59;;;18.46;100.00
22755;BME280;11544;42.020;23.094;2023-07-09T01:32:26;97522.75;;;18.58;100.00
22755;BME280;11544;42.020;23.094;2023-07-09T01:34:57;97525.13;;;18.49;100.00
22755;BME280;11544;42.020;23.094;2023-07-09T01:37:26;97529.88;;;18.71;100.00
22755;BME280;11544;42.020;23.094;2023-07-09T01:39:53;97523.59;;;18.59;100.00
22755;BME280;11544;42.020;23.094;2023-07-09T01:42:24;97524.00;;;19.09;100.00
22755;BME280;11544;42.020;23.094;2023-07-09T01:44:53;97533.25;;;19.01;100.00
22755;BME280;11544;42.020;23.094;2023-07-09T01:47:31;97533.28;;;18.87;100.00
22755;BME280;11544;42.020;23.094;2023-07-09T01:50:01;97533.19;;;18.89;100.00
22755;BME280;11544;42.020;23.094;2023-07-09T01:52:47;97533.78;;;19.21;99.04
22755;BME280;11544;42.020;23.094;2023-07-09T01:55:16;97539.53;;;18.72;100.00
22755;BME280;11544;42.020;23.094;2023-07-09T01:57:47;97542.66;;;18.64;100.00
22755;BME280;11544;42.020;23.094;2023-07-09T02:00:17;97541.03;;;19.17;100.00
22755;BME280;11544;42.020;23.094;2023-07-09T02:02:46;97543.97;;;18.86;98.96
22755;BME280;11544;42.020;23.094;2023-07-09T02:05:18;97543.50;;;18.79;99.95
22755;BME280;11544;42.020;23.094;2023-07-09T02:07:47;97532.50;;;19.54;95.96
22755;BME280;11544;42.020;23.094;2023-07-09T02:10:16;97541.59;;;18.95;98.59
22755;BME280;11544;42.020;23.094;2023-07-09T02:12:43;97547.91;;;18.93;100.00
22755;BME280;11544;42.020;23.094;2023-07-09T02:15:11;97547.66;;;18.83;99.24
22755;BME280;11544;42.020;23.094;2023-07-09T02:17:51;97557.16;;;18.71;100.00
22755;BME280;11544;42.020;23.094;2023-07-09T02:20:19;97551.59;;;18.76;100.00
22755;BME280;11544;42.020;23.094;2023-07-09T02:22:49;97560.38;;;18.19;100.00
22755;BME280;11544;42.020;23.094;2023-07-09T02:25:17;97558.41;;;18.37;100.00
22755;BME280;11544;42.020;23.094;2023-07-09T02:27:53;97562.78;;;19.08;100.00
22755;BME280;11544;42.020;23.094;2023-07-09T02:30:20;97560.00;;;18.97;99.36
22755;BME280;11544;42.020;23.094;2023-07-09T02:32:52;97565.28;;;18.54;100.00
22755;BME280;11544;42.020;23.094;2023-07-09T02:35:29;97562.63;;;18.39;100.00
22755;BME280;11544;42.020;23.094;2023-07-09T02:38:05;97575.75;;;18.27;100.00
22755;BME280;11544;42.020;23.094;2023-07-09T02:40:32;97573.59;;;18.48;100.00
22755;BME280;11544;42.020;23.094;2023-07-09T02:43:00;97569.69;;;18.68;100.00
22755;BME280;11544;42.020;23.094;2023-07-09T02:45:27;97571.47;;;19.37;100.00
22755;BME280;11544;42.020;23.094;2023-07-09T02:47:54;97573.28;;;18.95;99.87
22755;BME280;11544;42.020;23.094;2023-07-09T02:50:21;97578.19;;;18.44;98.89
22755;BME280;11544;42.020;23.094;2023-07-09T02:52:52;97582.81;;;18.26;100.00
22755;BME280;11544;42.020;23.094;2023-07-09T02:55:29;97582.53;;;18.31;100.00
22755;BME280;11544;42.020;23.094;2023-07-09T02:58:01;97590.25;;;18.34;100.00
22755;BME280;11544;42.020;23.094;2023-07-09T03:00:31;97590.75;;;18.26;100.00
22755;BME280;11544;42.020;23.094;2023-07-09T03:02:58;97591.72;;;18.09;100.00
22755;BME280;11544;42.020;23.094;2023-07-09T03:05:26;97591.34;;;18.01;100.00
22755;BME280;11544;42.020;23.094;2023-07-09T03:07:53;97594.47;;;17.77;100.00
22755;BME280;11544;42.020;23.094;2023-07-09T03:10:20;97589.22;;;18.22;100.00
22755;BME280;11544;42.020;23.094;2023-07-09T03:12:46;97588.72;;;18.15;100.00
22755;BME280;11544;42.020;23.094;2023-07-09T03:15:13;97595.06;;;18.41;100.00
22755;BME280;11544;42.020;23.094;2023-07-09T03:17:40;97587.97;;;18.71;100.00
22755;BME280;11544;42.020;23.094;2023-07-09T03:20:08;97593.28;;;18.42;100.00
22755;BME280;11544;42.020;23.094;2023-07-09T03:22:35;97587.25;;;18.69;100.00
22755;BME280;11544;42.020;23.094;2023-07-09T03:25:02;97589.94;;;19.10;98.71
22755;BME280;11544;42.020;23.094;2023-07-09T03:27:29;97578.75;;;18.63;100.00
22755;BME280;11544;42.020;23.094;2023-07-09T03:30:10;97589.16;;;18.81;100.00
22755;BME280;11544;42.020;23.094;2023-07-09T03:32:37;97583.13;;;19.48;95.43
22755;BME280;11544;42.020;23.094;2023-07-09T03:35:07;97594.78;;;18.32;99.14
22755;BME280;11544;42.020;23.094;2023-07-09T03:37:34;97595.25;;;18.10;100.00
22755;BME280;11544;42.020;23.094;2023-07-09T03:40:02;97602.97;;;17.83;100.00
22755;BME280;11544;42.020;23.094;2023-07-09T03:42:31;97590.75;;;18.83;98.73
22755;BME280;11544;42.020;23.094;2023-07-09T03:45:11;97598.81;;;18.37;100.00
22755;BME280;11544;42.020;23.094;2023-07-09T03:47:52;97589.88;;;18.97;96.36
22755;BME280;11544;42.020;23.094;2023-07-09T03:50:19;97596.66;;;18.73;98.52
22755;BME280;11544;42.020;23.094;2023-07-09T03:52:55;97592.56;;;19.52;91.96
22755;BME280;11544;42.020;23.094;2023-07-09T03:55:22;97596.78;;;19.54;89.57
22755;BME280;11544;42.020;23.094;2023-07-09T03:57:55;97593.09;;;19.30;89.38
22755;BME280;11544;42.020;23.094;2023-07-09T04:00:23;97584.44;;;19.82;88.11
22755;BME280;11544;42.020;23.094;2023-07-09T04:02:52;97587.50;;;19.07;90.06
22755;BME280;11544;42.020;23.094;2023-07-09T04:05:37;97588.84;;;19.27;92.11
22755;BME280;11544;42.020;23.094;2023-07-09T04:08:05;97589.31;;;19.34;91.39
22755;BME280;11544;42.020;23.094;2023-07-09T04:10:32;97596.28;;;19.62;89.44
22755;BME280;11544;42.020;23.094;2023-07-09T04:13:00;97596.84;;;20.45;84.45
22755;BME280;11544;42.020;23.094;2023-07-09T04:15:30;97593.19;;;21.47;77.07
22755;BME280;11544;42.020;23.094;2023-07-09T04:17:57;97595.56;;;21.26;77.36
22755;BME280;11544;42.020;23.094;2023-07-09T04:20:24;97592.34;;;21.10;77.10
22755;BME280;11544;42.020;23.094;2023-07-09T04:22:52;97596.34;;;21.15;78.50
22755;BME280;11544;42.020;23.094;2023-07-09T04:25:19;97601.44;;;20.56;84.46
22755;BME280;11544;42.020;23.094;2023-07-09T04:27:46;97596.19;;;21.43;81.22
22755;BME280;11544;42.020;23.094;2023-07-09T04:30:14;97597.34;;;21.02;82.62
22755;BME280;11544;42.020;23.094;2023-07-09T04:32:45;97604.28;;;20.66;80.44
22755;BME280;11544;42.020;23.094;2023-07-09T04:35:21;97604.72;;;21.70;81.15
22755;BME280;11544;42.020;23.094;2023-07-09T04:37:49;97601.50;;;22.13;73.17
22755;BME280;11544;42.020;23.094;2023-07-09T04:40:18;97597.25;;;21.99;71.53
22755;BME280;11544;42.020;23.094;2023-07-09T04:51:04;97606.19;;;22.45;68.95
22755;BME280;11544;42.020;23.094;2023-07-09T04:53:31;97607.66;;;22.72;66.12
22755;BME280;11544;42.020;23.094;2023-07-09T04:55:59;97605.25;;;22.80;66.26
22755;BME280;11544;42.020;23.094;2023-07-09T04:58:29;97601.13;;;22.65;65.55
22755;BME280;11544;42.020;23.094;2023-07-09T05:00:59;97601.03;;;23.11;65.14
22755;BME280;11544;42.020;23.094;2023-07-09T05:03:26;97611.03;;;22.62;64.87
22755;BME280;11544;42.020;23.094;2023-07-09T05:05:53;97606.44;;;22.76;66.03
22755;BME280;11544;42.020;23.094;2023-07-09T05:08:25;97606.13;;;23.46;65.54
22755;BME280;11544;42.020;23.094;2023-07-09T05:10:52;97603.13;;;24.04;62.16
22755;BME280;11544;42.020;23.094;2023-07-09T05:13:19;97603.06;;;23.62;64.16
22755;BME280;11544;42.020;23.094;2023-07-09T05:15:47;97609.16;;;23.85;62.20
22755;BME280;11544;42.020;23.094;2023-07-09T05:18:15;97597.88;;;24.35;61.21
22755;BME280;11544;42.020;23.094;2023-07-09T05:20:42;97615.38;;;22.86;64.46
22755;BME280;11544;42.020;23.094;2023-07-09T05:23:09;97609.84;;;23.12;65.14
22755;BME280;11544;42.020;23.094;2023-07-09T05:25:37;97605.53;;;24.70;58.85
22755;BME280;11544;42.020;23.094;2023-07-09T05:28:04;97601.34;;;25.59;55.16
22755;BME280;11544;42.020;23.094;2023-07-09T05:30:32;97594.16;;;25.69;54.17
22755;BME280;11544;42.020;23.094;2023-07-09T05:32:59;97596.16;;;25.07;54.92
22755;BME280;11544;42.020;23.094;2023-07-09T05:35:27;97598.97;;;25.75;53.31
22755;BME280;11544;42.020;23.094;2023-07-09T05:37:55;97601.97;;;24.39;55.53
22755;BME280;11544;42.020;23.094;2023-07-09T05:40:22;97595.84;;;25.00;53.69
22755;BME280;11544;42.020;23.094;2023-07-09T05:43:08;97599.63;;;24.67;56.86
22755;BME280;11544;42.020;23.094;2023-07-09T05:45:35;97599.41;;;24.49;57.98
22755;BME280;11544;42.020;23.094;2023-07-09T05:48:02;97593.75;;;25.64;54.41
22755;BME280;11544;42.020;23.094;2023-07-09T05:50:29;97590.25;;;25.83;53.96
22755;BME280;11544;42.020;23.094;2023-07-09T05:52:56;97589.81;;;26.16;51.39
22755;BME280;11544;42.020;23.094;2023-07-09T05:55:23;97582.13;;;25.14;56.22
22755;BME280;11544;42.020;23.094;2023-07-09T05:57:50;97582.88;;;26.33;52.31
22755;BME280;11544;42.020;23.094;2023-07-09T06:00:17;97583.66;;;25.17;55.54
22755;BME280;11544;42.020;23.094;2023-07-09T06:02:44;97581.41;;;25.82;53.36
22755;BME280;11544;42.020;23.094;2023-07-09T06:05:11;97578.44;;;25.75;52.53
22755;BME280;11544;42.020;23.094;2023-07-09T06:07:39;97575.97;;;26.40;50.12
22755;BME280;11544;42.020;23.094;2023-07-09T06:10:07;97579.50;;;26.41;51.77
22755;BME280;11544;42.020;23.094;2023-07-09T06:12:35;97576.75;;;26.13;51.61
22755;BME280;11544;42.020;23.094;2023-07-09T06:15:03;97574.16;;;25.24;55.68
22755;BME280;11544;42.020;23.094;2023-07-09T06:17:30;97572.50;;;25.33;54.90
22755;BME280;11544;42.020;23.094;2023-07-09T06:19:57;97567.91;;;25.93;53.57
22755;BME280;11544;42.020;23.094;2023-07-09T06:22:25;97573.53;;;25.61;54.41
22755;BME280;11544;42.020;23.094;2023-07-09T06:24:54;97575.31;;;25.51;54.88
22755;BME280;11544;42.020;23.094;2023-07-09T06:27:20;97565.63;;;25.50;55.66
22755;BME280;11544;42.020;23.094;2023-07-09T06:29:47;97574.78;;;24.97;53.27
22755;BME280;11544;42.020;23.094;2023-07-09T06:32:15;97569.56;;;25.65;53.39
22755;BME280;11544;42.020;23.094;2023-07-09T06:34:42;97574.53;;;26.66;50.46
22755;BME280;11544;42.020;23.094;2023-07-09T06:37:09;97570.81;;;26.19;52.82
22755;BME280;11544;42.020;23.094;2023-07-09T06:39:36;97554.97;;;26.65;50.92
22755;BME280;11544;42.020;23.094;2023-07-09T06:42:03;97557.59;;;26.75;50.86
22755;BME280;11544;42.020;23.094;2023-07-09T06:44:32;97562.41;;;26.05;53.14
22755;BME280;11544;42.020;23.094;2023-07-09T06:46:59;97562.16;;;25.88;53.98
22755;BME280;11544;42.020;23.094;2023-07-09T06:49:27;97547.53;;;27.24;48.17
22755;BME280;11544;42.020;23.094;2023-07-09T06:51:54;97543.22;;;27.49;48.58
22755;BME280;11544;42.020;23.094;2023-07-09T06:54:24;97540.47;;;27.59;46.45
22755;BME280;11544;42.020;23.094;2023-07-09T06:56:51;97538.97;;;27.38;48.00
22755;BME280;11544;42.020;23.094;2023-07-09T06:59:19;97541.84;;;27.99;47.65
22755;BME280;11544;42.020;23.094;2023-07-09T07:01:46;97534.47;;;28.19;44.60
22755;BME280;11544;42.020;23.094;2023-07-09T07:04:13;97545.69;;;27.96;46.08
22755;BME280;11544;42.020;23.094;2023-07-09T07:06:40;97537.84;;;26.86;48.31
22755;BME280;11544;42.020;23.094;2023-07-09T07:09:07;97532.00;;;27.63;45.69
22755;BME280;11544;42.020;23.094;2023-07-09T07:11:35;97532.78;;;28.18;46.34
22755;BME280;11544;42.020;23.094;2023-07-09T07:14:02;97529.97;;;28.27;46.12
22755;BME280;11544;42.020;23.094;2023-07-09T07:16:29;97535.63;;;27.90;48.15
22755;BME280;11544;42.020;23.094;2023-07-09T07:18:56;97528.94;;;27.58;47.19
22755;BME280;11544;42.020;23.094;2023-07-09T07:21:23;97525.84;;;26.90;48.23
22755;BME280;11544;42.020;23.094;2023-07-09T07:23:50;97518.91;;;27.96;46.65
22755;BME280;11544;42.020;23.094;2023-07-09T07:26:19;97521.19;;;28.09;46.60
22755;BME280;11544;42.020;23.094;2023-07-09T07:28:46;97520.00;;;28.38;45.29
22755;BME280;11544;42.020;23.094;2023-07-09T07:31:13;97521.38;;;28.42;43.99
22755;BME280;11544;42.020;23.094;2023-07-09T07:33:41;97522.13;;;28.26;43.52
22755;BME280;11544;42.020;23.094;2023-07-09T07:36:09;97507.41;;;28.99;43.62
22755;BME280;11544;42.020;23.094;2023-07-09T07:38:39;97508.84;;;29.36;43.39
22755;BME280;11544;42.020;23.094;2023-07-09T07:41:07;97495.84;;;29.06;42.26
22755;BME280;11544;42.020;23.094;2023-07-09T07:43:34;97498.56;;;28.64;42.56
22755;BME280;11544;42.020;23.094;2023-07-09T07:46:01;97501.47;;;28.44;43.24
22755;BME280;11544;42.020;23.094;2023-07-09T07:48:37;97495.31;;;28.00;43.79
22755;BME280;11544;42.020;23.094;2023-07-09T07:51:04;97496.63;;;28.90;41.98
22755;BME280;11544;42.020;23.094;2023-07-09T07:53:31;97496.47;;;28.49;41.76
22755;BME280;11544;42.020;23.094;2023-07-09T07:55:58;97480.13;;;28.61;40.20
22755;BME280;11544;42.020;23.094;2023-07-09T07:58:25;97479.50;;;29.42;42.39
22755;BME280;11544;42.020;23.094;2023-07-09T08:01:06;97484.00;;;28.40;42.59
22755;BME280;11544;42.020;23.094;2023-07-09T08:03:34;97482.38;;;28.98;41.28
22755;BME280;11544;42.020;23.094;2023-07-09T08:06:19;97471.91;;;30.11;39.23
22755;BME280;11544;42.020;23.094;2023-07-09T08:08:47;97480.72;;;29.72;38.41
22755;BME280;11544;42.020;23.094;2023-07-09T08:11:14;97477.31;;;29.79;40.12
22755;BME280;11544;42.020;23.094;2023-07-09T08:13:42;97477.63;;;29.26;38.89
22755;BME280;11544;42.020;23.094;2023-07-09T08:16:09;97464.66;;;30.20;38.56
22755;BME280;11544;42.020;23.094;2023-07-09T08:18:38;97468.56;;;30.01;38.81
22755;BME280;11544;42.020;23.094;2023-07-09T08:21:06;97466.63;;;28.87;38.70
22755;BME280;11544;42.020;23.094;2023-07-09T08:23:33;97459.94;;;30.38;37.08
22755;BME280;11544;42.020;23.094;2023-07-09T08:26:01;97465.41;;;29.81;36.88
22755;BME280;11544;42.020;23.094;2023-07-09T08:28:30;97459.34;;;29.54;37.77
22755;BME280;11544;42.020;23.094;2023-07-09T08:30:58;97456.84;;;29.78;36.36
22755;BME280;11544;42.020;23.094;2023-07-09T08:58:28;97463.84;;;30.28;34.30
22755;BME280;11544;42.020;23.094;2023-07-09T09:01:10;97463.53;;;29.41;34.71
22755;BME280;11544;42.020;23.094;2023-07-09T09:03:53;97461.69;;;29.66;34.49
22755;BME280;11544;42.020;23.094;2023-07-09T09:06:31;97453.69;;;30.46;32.80
22755;BME280;11544;42.020;23.094;2023-07-09T09:09:37;97449.28;;;29.81;33.70
22755;BME280;11544;42.020;23.094;2023-07-09T09:12:19;97449.13;;;29.83;35.14
22755;BME280;11544;42.020;23.094;2023-07-09T09:14:57;97451.47;;;29.45;34.54
22755;BME280;11544;42.020;23.094;2023-07-09T09:17:25;97454.47;;;30.07;35.65
22755;BME280;11544;42.020;23.094;2023-07-09T09:20:02;97448.31;;;30.46;35.18
22755;BME280;11544;42.020;23.094;2023-07-09T09:22:46;97442.38;;;30.59;34.78
22755;BME280;11544;42.020;23.094;2023-07-09T09:25:24;97435.53;;;30.48;35.09
22755;BME280;11544;42.020;23.094;2023-07-09T09:28:26;97435.94;;;30.21;35.17
22755;BME280;11544;42.020;23.094;2023-07-09T09:31:03;97423.97;;;30.71;34.32
22755;BME280;11544;42.020;23.094;2023-07-09T09:33:48;97424.19;;;30.30;34.19
22755;BME280;11544;42.020;23.094;2023-07-09T09:36:19;97426.81;;;30.46;34.76
22755;BME280;11544;42.020;23.094;2023-07-09T09:38:46;97433.13;;;30.62;34.03
22755;BME280;11544;42.020;23.094;2023-07-09T09:41:21;97422.38;;;30.62;34.93
22755;BME280;11544;42.020;23.094;2023-07-09T09:44:27;97426.19;;;30.36;34.78
22755;BME280;11544;42.020;23.094;2023-07-09T09:46:58;97420.59;;;30.37;33.92
22755;BME280;11544;42.020;23.094;2023-07-09T09:49:27;97416.72;;;30.48;33.20
22755;BME280;11544;42.020;23.094;2023-07-09T09:51:55;97423.25;;;29.90;34.95
22755;BME280;11544;42.020;23.094;2023-07-09T09:54:27;97409.09;;;30.60;34.73
22755;BME280;11544;42.020;23.094;2023-07-09T09:56:57;97412.69;;;29.31;34.90
22755;BME280;11544;42.020;23.094;2023-07-09T09:59:31;97419.56;;;29.91;35.07
22755;BME280;11544;42.020;23.094;2023-07-09T10:02:26;97406.72;;;30.17;34.90
22755;BME280;11544;42.020;23.094;2023-07-09T10:46:14;97365.53;;;31.57;34.25
22755;BME280;11544;42.020;23.094;2023-07-09T10:48:45;97358.03;;;31.06;35.59
22755;BME280;11544;42.020;23.094;2023-07-09T10:51:22;97355.81;;;31.33;34.05
22755;BME280;11544;42.020;23.094;2023-07-09T10:56:39;97358.44;;;31.56;34.57
22755;BME280;11544;42.020;23.094;2023-07-09T10:59:16;97363.69;;;31.34;34.13
22755;BME280;11544;42.020;23.094;2023-07-09T11:01:55;97340.34;;;31.27;33.27
22755;BME280;11544;42.020;23.094;2023-07-09T11:04:31;97350.59;;;32.28;33.02
22755;BME280;11544;42.020;23.094;2023-07-09T11:07:03;97352.69;;;31.97;34.53
22755;BME280;11544;42.020;23.094;2023-07-09T11:09:35;97353.72;;;32.62;32.52
22755;BME280;11544;42.020;23.094;2023-07-09T11:12:13;97348.28;;;32.25;33.48
22755;BME280;11544;42.020;23.094;2023-07-09T11:15:25;97354.47;;;31.52;32.81
22755;BME280;11544;42.020;23.094;2023-07-09T11:21:00;97350.19;;;31.57;32.30
22755;BME280;11544;42.020;23.094;2023-07-09T11:26:27;97353.63;;;31.51;31.55
22755;BME280;11544;42.020;23.094;2023-07-09T11:31:45;97339.63;;;31.33;32.70
22755;BME280;11544;42.020;23.094;2023-07-09T11:34:27;97336.44;;;31.14;31.51
22755;BME280;11544;42.020;23.094;2023-07-09T11:39:29;97328.41;;;32.12;31.09
22755;BME280;11544;42.020;23.094;2023-07-09T11:41:58;97324.19;;;32.24;29.52
22755;BME280;11544;42.020;23.094;2023-07-09T11:44:32;97317.03;;;31.72;30.85
22755;BME280;11544;42.020;23.094;2023-07-09T11:49:58;97314.16;;;32.03;29.54
22755;BME280;11544;42.020;23.094;2023-07-09T11:53:15;97309.22;;;31.62;29.85
22755;BME280;11544;42.020;23.094;2023-07-09T11:55:47;97317.75;;;31.51;29.81
22755;BME280;11544;42.020;23.094;2023-07-09T11:58:21;97315.00;;;31.59;28.58
22755;BME280;11544;42.020;23.094;2023-07-09T12:01:01;97313.88;;;32.13;29.62
22755;BME280;11544;42.020;23.094;2023-07-09T12:18:00;97293.19;;;31.69;28.10
22755;BME280;11544;42.020;23.094;2023-07-09T12:20:31;97293.63;;;31.57;28.73
22755;BME280;11544;42.020;23.094;2023-07-09T12:23:25;97291.38;;;31.46;27.93
22755;BME280;11544;42.020;23.094;2023-07-09T12:25:54;97290.38;;;31.77;28.70
22755;BME280;11544;42.020;23.094;2023-07-09T12:28:26;97289.56;;;31.47;28.17
22755;BME280;11544;42.020;23.094;2023-07-09T12:31:14;97294.47;;;31.58;27.87
22755;BME280;11544;42.020;23.094;2023-07-09T12:33:53;97288.94;;;31.36;27.75
22755;BME280;11544;42.020;23.094;2023-07-09T12:36:24;97289.28;;;31.71;27.60
22755;BME280;11544;42.020;23.094;2023-07-09T12:38:56;97283.38;;;32.27;26.89
22755;BME280;11544;42.020;23.094;2023-07-09T12:41:38;97281.34;;;31.70;27.84
22755;BME280;11544;42.020;23.094;2023-07-09T12:44:15;97279.50;;;32.00;26.88
22755;BME280;11544;42.020;23.094;2023-07-09T12:46:47;97278.22;;;32.11;28.12
22755;BME280;11544;42.020;23.094;2023-07-09T12:49:47;97272.47;;;31.99;27.76
22755;BME280;11544;42.020;23.094;2023-07-09T12:52:45;97268.97;;;32.20;27.86
22755;BME280;11544;42.020;23.094;2023-07-09T13:06:29;97261.28;;;31.72;26.59
22755;BME280;11544;42.020;23.094;2023-07-09T13:25:31;97248.09;;;31.62;24.53
22755;BME280;11544;42.020;23.094;2023-07-09T13:28:19;97246.81;;;31.73;26.54
22755;BME280;11544;42.020;23.094;2023-07-09T13:30:48;97237.41;;;31.69;27.20
22755;BME280;11544;42.020;23.094;2023-07-09T13:33:17;97234.66;;;31.48;28.15
22755;BME280;11544;42.020;23.094;2023-07-09T13:35:46;97242.44;;;32.02;28.34
22755;BME280;11544;42.020;23.094;2023-07-09T13:38:17;97239.06;;;31.70;28.34
22755;BME280;11544;42.020;23.094;2023-07-09T13:40:48;97233.81;;;31.62;29.15
22755;BME280;11544;42.020;23.094;2023-07-09T13:43:24;97237.72;;;31.45;27.18
22755;BME280;11544;42.020;23.094;2023-07-09T13:45:53;97239.06;;;31.70;27.88
22755;BME280;11544;42.020;23.094;2023-07-09T13:48:23;97241.50;;;31.80;26.69
22755;BME280;11544;42.020;23.094;2023-07-09T13:50:52;97240.22;;;31.61;26.18
22755;BME280;11544;42.020;23.094;2023-07-09T13:53:28;97245.66;;;31.23;26.42
22755;BME280;11544;42.020;23.094;2023-07-09T13:55:56;97243.81;;;31.38;26.57
22755;BME280;11544;42.020;23.094;2023-07-09T13:58:25;97239.06;;;31.26;25.17
22755;BME280;11544;42.020;23.094;2023-07-09T14:00:58;97236.03;;;31.73;24.79
22755;BME280;11544;42.020;23.094;2023-07-09T14:03:40;97234.97;;;31.89;25.06
22755;BME280;11544;42.020;23.094;2023-07-09T14:06:17;97238.47;;;31.68;25.85
22755;BME280;11544;42.020;23.094;2023-07-09T14:08:45;97241.84;;;31.32;26.64
22755;BME280;11544;42.020;23.094;2023-07-09T14:11:14;97235.81;;;31.30;27.66
22755;BME280;11544;42.020;23.094;2023-07-09T14:13:48;97239.81;;;31.34;26.15
22755;BME280;11544;42.020;23.094;2023-07-09T14:16:19;97242.13;;;31.22;27.06
22755;BME280;11544;42.020;23.094;2023-07-09T14:18:46;97239.38;;;31.46;27.94
22755;BME280;11544;42.020;23.094;2023-07-09T14:21:20;97251.09;;;31.53;26.46
22755;BME280;11544;42.020;23.094;2023-07-09T14:23:49;97244.50;;;31.40;26.90
22755;BME280;11544;42.020;23.094;2023-07-09T14:26:16;97237.22;;;31.26;27.19
22755;BME280;11544;42.020;23.094;2023-07-09T14:28:43;97245.88;;;31.51;27.83
22755;BME280;11544;42.020;23.094;2023-07-09T14:31:23;97245.56;;;31.31;25.29
22755;BME280;11544;42.020;23.094;2023-07-09T14:33:52;97242.53;;;30.96;26.28
22755;BME280;11544;42.020;23.094;2023-07-09T14:36:22;97246.81;;;31.06;25.97
22755;BME280;11544;42.020;23.094;2023-07-09T14:38:49;97240.19;;;31.16;27.12
22755;BME280;11544;42.020;23.094;2023-07-09T14:41:24;97239.91;;;31.11;26.56
22755;BME280;11544;42.020;23.094;2023-07-09T14:44:00;97235.94;;;30.99;26.88
22755;BME280;11544;42.020;23.094;2023-07-09T14:46:29;97240.06;;;30.95;26.77
22755;BME280;11544;42.020;23.094;2023-07-09T14:48:56;97234.19;;;31.06;25.32
22755;BME280;11544;42.020;23.094;2023-07-09T14:51:23;97234.78;;;31.16;24.86
22755;BME280;11544;42.020;23.094;2023-07-09T14:53:51;97228.31;;;31.26;26.36
22755;BME280;11544;42.020;23.094;2023-07-09T14:56:18;97239.41;;;31.08;26.67
22755;BME280;11544;42.020;23.094;2023-07-09T14:58:46;97236.00;;;31.14;27.94
22755;BME280;11544;42.020;23.094;2023-07-09T15:01:14;97241.28;;;31.07;28.30
22755;BME280;11544;42.020;23.094;2023-07-09T15:03:41;97238.91;;;30.89;28.02
22755;BME280;11544;42.020;23.094;2023-07-09T15:06:08;97234.41;;;31.34;27.31
22755;BME280;11544;42.020;23.094;2023-07-09T15:08:36;97236.56;;;31.39;27.58
22755;BME280;11544;42.020;23.094;2023-07-09T15:11:05;97235.25;;;30.82;27.42
22755;BME280;11544;42.020;23.094;2023-07-09T15:13:40;97239.38;;;30.70;25.34
22755;BME280;11544;42.020;23.094;2023-07-09T15:16:08;97249.88;;;30.88;25.26
22755;BME280;11544;42.020;23.094;2023-07-09T15:18:35;97231.78;;;30.73;26.21
22755;BME280;11544;42.020;23.094;2023-07-09T15:21:03;97237.19;;;31.11;26.72
22755;BME280;11544;42.020;23.094;2023-07-09T15:23:40;97230.41;;;31.00;27.24
22755;BME280;11544;42.020;23.094;2023-07-09T15:26:13;97243.56;;;30.95;26.89